Detall de PIREP

Printer-friendly versionPDF version

[2015/04/05 06:01:00]
Flight IATA:CT2104
Pilot Number:041
Company ICAO:CAT
Aircraft Type:BE20/A
PAX:4
Departing Airport: LEVC
Destination Airport: LEBB
Alternate Airport:LEMD
Online: VATSIM
Route:CENTA A33 CJN R10 PPN G23 CEGAM
Flight Level:FL140
No Slew and time accel
No pause
Crash detect
Detect pilot in Cockpit between each 30 and 45 minutes
06:01 Zero fuel Weight: 8737 Lbs, Fuel Weight: 3677 Lbs
06:01 VATSIM:LEVC 050530Z VRB01KT CAVOK 08/07 Q1010 NOSIG
06:01 VATSIM:LEBB 050530Z 00000KT 9999 FEW008 BKN050 10/09 Q1017 TEMPO DZRA BKN008
06:02 VOICE CATALONIAN
06:09 Parking Brakes off
06:14 Take-off
06:14 Take off Weight: 12378 Lbs
06:14 Wind: 073º @ 001 Knots Heading: 297º
06:14 POS N39º 29´ 25´´ W000º 29´ 02´´
06:14 Gear Up: 140 Knots
06:14 Flaps:1 at 140 Knots
06:14 Flaps:0 at 151 Knots
06:29 Wind:285º@012 Knots Heading: 298º Ground Speed: 227 Knots Altitude12926 ft
06:44 Wind:274º@014 Knots Heading: 297º Ground Speed: 231 Knots Altitude 12965 ft
06:46 TOC
06:46 Fuel Weight: 3255 Lb
06:59 Wind:274º@014 Knots Heading: 353º Ground Speed: 239 Knots Altitude 13969 ft
07:14 Wind:270º@032 Knots Heading: 017º Ground Speed: 253 Knots Altitude 14045 ft
07:23 TOD
07:23 Fuel Weight: 2845 Lb
07:29 Wind:245º@006 Knots Heading: 303º Ground Speed: 235 Knots Altitude 7467 ft
07:35 Flaps:1 at 208 Knots
07:36 Gear Down: 218 Knots
07:36 Gear Up: 218 Knots
07:37 Flaps:0 at 214 Knots
07:38 Flaps:1 at 175 Knots
07:38 Gear Down: 167 Knots
07:38 Flaps:2 at 150 Knots
07:40 TouchDown:Rate -279 ft/min Speed: 112 Knots
07:40 Flaps:0 at 104 Knots
07:40 VATSIM:LEBB 050700Z 00000KT 9999 SCT022 BKN040 10/10 Q1018 TEMPO DZRA BKN008
07:40 Land
07:40 Wind:208º@002 Knots
07:40 Heading: 295º
07:40 Flight Duration: 01:26
07:40 Landing Weight:11461 Lbs
07:40 POS N43º 18´ 16´´ W002º 55´ 11´´
07:45 Parking brakes on
07:45 Block to Block Duration: 01:36
07:45 Final Fuel: 2711 Lbls
07:45 Spent Fuel: 965 Lbls
07:45 Flight Length: 323 NM
07:45 TOD Land Length: 60 NM

Exportar CSV

Powered by Drupal - Modified by Danger4k